sensor_id;sensor_type;location;lat;lon;timestamp;pressure;altitude;pressure_sealevel;temperature;humidity
46347;BME280;32057;47.830;19.046;2023-09-07T00:00:39;100961.13;;;14.05;100.00
46347;BME280;32057;47.830;19.046;2023-09-07T00:03:05;100961.78;;;13.93;100.00
46347;BME280;32057;47.830;19.046;2023-09-07T00:05:31;100961.69;;;13.87;100.00
46347;BME280;32057;47.830;19.046;2023-09-07T00:07:56;100959.03;;;13.84;100.00
46347;BME280;32057;47.830;19.046;2023-09-07T00:10:22;100957.31;;;13.85;100.00
46347;BME280;32057;47.830;19.046;2023-09-07T00:12:48;100965.03;;;13.79;100.00
46347;BME280;32057;47.830;19.046;2023-09-07T00:15:13;100958.22;;;13.87;100.00
46347;BME280;32057;47.830;19.046;2023-09-07T00:17:39;100960.75;;;13.84;100.00
46347;BME280;32057;47.830;19.046;2023-09-07T00:20:04;100959.97;;;13.89;100.00
46347;BME280;32057;47.830;19.046;2023-09-07T00:22:37;100956.59;;;13.95;100.00
46347;BME280;32057;47.830;19.046;2023-09-07T00:25:03;100957.34;;;13.88;100.00
46347;BME280;32057;47.830;19.046;2023-09-07T00:27:29;100949.28;;;13.74;100.00
46347;BME280;32057;47.830;19.046;2023-09-07T00:29:55;100952.84;;;13.79;100.00
46347;BME280;32057;47.830;19.046;2023-09-07T00:32:20;100952.06;;;13.85;100.00
46347;BME280;32057;47.830;19.046;2023-09-07T00:34:46;100952.75;;;13.73;100.00
46347;BME280;32057;47.830;19.046;2023-09-07T00:37:11;100945.19;;;13.90;100.00
46347;BME280;32057;47.830;19.046;2023-09-07T00:39:37;100946.88;;;13.86;100.00
46347;BME280;32057;47.830;19.046;2023-09-07T00:42:03;100947.69;;;13.82;100.00
46347;BME280;32057;47.830;19.046;2023-09-07T00:44:28;100945.09;;;13.85;100.00
46347;BME280;32057;47.830;19.046;2023-09-07T00:46:54;100946.09;;;13.93;100.00
46347;BME280;32057;47.830;19.046;2023-09-07T00:49:19;100944.84;;;13.71;100.00
46347;BME280;32057;47.830;19.046;2023-09-07T00:51:45;100938.50;;;13.57;100.00
46347;BME280;32057;47.830;19.046;2023-09-07T00:54:10;100945.16;;;13.40;100.00
46347;BME280;32057;47.830;19.046;2023-09-07T00:56:36;100942.25;;;13.24;100.00
46347;BME280;32057;47.830;19.046;2023-09-07T00:59:02;100936.81;;;13.15;100.00
46347;BME280;32057;47.830;19.046;2023-09-07T01:01:27;100942.06;;;13.15;100.00
46347;BME280;32057;47.830;19.046;2023-09-07T01:03:54;100940.41;;;13.20;100.00
46347;BME280;32057;47.830;19.046;2023-09-07T01:06:45;100936.25;;;13.30;100.00
46347;BME280;32057;47.830;19.046;2023-09-07T01:09:19;100935.50;;;13.35;100.00
46347;BME280;32057;47.830;19.046;2023-09-07T01:11:45;100930.00;;;13.23;100.00
46347;BME280;32057;47.830;19.046;2023-09-07T01:14:10;100937.09;;;13.29;100.00
46347;BME280;32057;47.830;19.046;2023-09-07T01:16:36;100931.47;;;13.09;100.00
46347;BME280;32057;47.830;19.046;2023-09-07T01:19:05;100935.63;;;12.99;100.00
46347;BME280;32057;47.830;19.046;2023-09-07T01:21:34;100938.16;;;12.94;100.00
46347;BME280;32057;47.830;19.046;2023-09-07T01:24:01;100936.47;;;12.97;100.00
46347;BME280;32057;47.830;19.046;2023-09-07T01:26:27;100934.00;;;13.06;100.00
46347;BME280;32057;47.830;19.046;2023-09-07T01:28:53;100929.84;;;13.14;100.00
46347;BME280;32057;47.830;19.046;2023-09-07T01:31:18;100938.63;;;13.19;100.00
46347;BME280;32057;47.830;19.046;2023-09-07T01:33:44;100939.47;;;13.17;100.00
46347;BME280;32057;47.830;19.046;2023-09-07T01:36:09;100936.75;;;13.12;100.00
46347;BME280;32057;47.830;19.046;2023-09-07T01:38:35;100940.16;;;13.08;100.00
46347;BME280;32057;47.830;19.046;2023-09-07T01:41:00;100936.72;;;13.09;100.00
46347;BME280;32057;47.830;19.046;2023-09-07T01:43:26;100944.66;;;13.15;100.00
46347;BME280;32057;47.830;19.046;2023-09-07T01:45:51;100947.28;;;13.15;100.00
46347;BME280;32057;47.830;19.046;2023-09-07T01:48:16;100947.47;;;13.24;100.00
46347;BME280;32057;47.830;19.046;2023-09-07T01:50:42;100947.38;;;13.21;100.00
46347;BME280;32057;47.830;19.046;2023-09-07T01:53:07;100943.97;;;13.25;100.00
46347;BME280;32057;47.830;19.046;2023-09-07T01:55:33;100944.81;;;13.23;100.00
46347;BME280;32057;47.830;19.046;2023-09-07T01:57:58;100940.41;;;13.20;100.00
46347;BME280;32057;47.830;19.046;2023-09-07T02:00:24;100939.19;;;13.03;100.00
46347;BME280;32057;47.830;19.046;2023-09-07T02:02:49;100940.09;;;13.05;100.00
46347;BME280;32057;47.830;19.046;2023-09-07T02:05:15;100942.81;;;13.09;100.00
46347;BME280;32057;47.830;19.046;2023-09-07T02:07:41;100940.16;;;13.06;100.00
46347;BME280;32057;47.830;19.046;2023-09-07T02:10:07;100948.97;;;13.13;100.00
46347;BME280;32057;47.830;19.046;2023-09-07T02:12:33;100943.84;;;13.18;100.00
46347;BME280;32057;47.830;19.046;2023-09-07T02:15:02;100941.94;;;13.09;100.00
46347;BME280;32057;47.830;19.046;2023-09-07T02:17:28;100948.16;;;13.15;100.00
46347;BME280;32057;47.830;19.046;2023-09-07T02:19:54;100944.50;;;13.07;100.00
46347;BME280;32057;47.830;19.046;2023-09-07T02:22:19;100943.31;;;12.91;100.00
46347;BME280;32057;47.830;19.046;2023-09-07T02:24:45;100938.16;;;12.94;100.00
46347;BME280;32057;47.830;19.046;2023-09-07T02:27:10;100943.44;;;12.98;100.00
46347;BME280;32057;47.830;19.046;2023-09-07T02:29:35;100931.91;;;12.88;100.00
46347;BME280;32057;47.830;19.046;2023-09-07T02:32:01;100934.72;;;12.97;100.00
46347;BME280;32057;47.830;19.046;2023-09-07T02:34:26;100939.19;;;13.03;100.00
46347;BME280;32057;47.830;19.046;2023-09-07T02:36:52;100941.94;;;13.09;100.00
46347;BME280;32057;47.830;19.046;2023-09-07T02:39:17;100937.63;;;13.11;100.00
46347;BME280;32057;47.830;19.046;2023-09-07T02:41:43;100940.94;;;13.04;100.00
46347;BME280;32057;47.830;19.046;2023-09-07T02:44:09;100943.56;;;13.02;100.00
46347;BME280;32057;47.830;19.046;2023-09-07T02:46:34;100936.63;;;13.06;100.00
46347;BME280;32057;47.830;19.046;2023-09-07T02:48:59;100940.03;;;13.02;100.00
46347;BME280;32057;47.830;19.046;2023-09-07T02:51:25;100937.38;;;12.99;100.00
46347;BME280;32057;47.830;19.046;2023-09-07T02:53:51;100940.03;;;13.02;100.00
46347;BME280;32057;47.830;19.046;2023-09-07T02:56:16;100943.50;;;13.01;100.00
46347;BME280;32057;47.830;19.046;2023-09-07T02:58:42;100944.41;;;13.03;100.00
46347;BME280;32057;47.830;19.046;2023-09-07T03:01:08;100942.59;;;12.99;100.00
46347;BME280;32057;47.830;19.046;2023-09-07T03:03:37;100945.38;;;13.08;100.00
46347;BME280;32057;47.830;19.046;2023-09-07T03:06:10;100941.13;;;13.13;100.00
46347;BME280;32057;47.830;19.046;2023-09-07T03:08:35;100945.38;;;13.08;100.00
46347;BME280;32057;47.830;19.046;2023-09-07T03:11:05;100941.94;;;13.09;100.00
46347;BME280;32057;47.830;19.046;2023-09-07T03:13:31;100953.38;;;13.15;100.00
46347;BME280;32057;47.830;19.046;2023-09-07T03:15:56;100945.53;;;13.15;100.00
46347;BME280;32057;47.830;19.046;2023-09-07T03:18:22;100947.38;;;13.21;100.00
46347;BME280;32057;47.830;19.046;2023-09-07T03:20:47;100946.44;;;13.18;100.00
46347;BME280;32057;47.830;19.046;2023-09-07T03:23:13;100950.91;;;13.23;100.00
46347;BME280;32057;47.830;19.046;2023-09-07T03:25:38;100955.19;;;13.20;100.00
46347;BME280;32057;47.830;19.046;2023-09-07T03:28:04;100949.94;;;13.17;100.00
46347;BME280;32057;47.830;19.046;2023-09-07T03:30:29;100945.47;;;13.11;100.00
46347;BME280;32057;47.830;19.046;2023-09-07T03:32:55;100956.56;;;13.01;100.00
46347;BME280;32057;47.830;19.046;2023-09-07T03:35:20;100958.22;;;12.97;100.00
46347;BME280;32057;47.830;19.046;2023-09-07T03:37:46;100948.75;;;13.01;100.00
46347;BME280;32057;47.830;19.046;2023-09-07T03:40:12;100952.25;;;13.03;100.00
46347;BME280;32057;47.830;19.046;2023-09-07T03:42:38;100955.59;;;12.95;100.00
46347;BME280;32057;47.830;19.046;2023-09-07T03:45:04;100952.88;;;12.91;100.00
46347;BME280;32057;47.830;19.046;2023-09-07T03:47:30;100953.09;;;13.02;100.00
46347;BME280;32057;47.830;19.046;2023-09-07T03:49:56;100954.91;;;13.06;100.00
46347;BME280;32057;47.830;19.046;2023-09-07T03:52:25;100957.53;;;13.06;100.00
46347;BME280;32057;47.830;19.046;2023-09-07T03:54:53;100961.75;;;12.99;100.00
46347;BME280;32057;47.830;19.046;2023-09-07T03:57:19;100962.75;;;13.06;100.00
46347;BME280;32057;47.830;19.046;2023-09-07T03:59:45;100967.72;;;12.93;100.00
46347;BME280;32057;47.830;19.046;2023-09-07T04:02:11;100972.00;;;12.88;100.00
46347;BME280;32057;47.830;19.046;2023-09-07T04:04:36;100973.69;;;12.86;100.00
46347;BME280;32057;47.830;19.046;2023-09-07T04:07:01;100981.59;;;12.89;100.00
46347;BME280;32057;47.830;19.046;2023-09-07T04:09:27;100975.53;;;12.92;100.00
46347;BME280;32057;47.830;19.046;2023-09-07T04:11:52;100976.31;;;12.86;100.00
46347;BME280;32057;47.830;19.046;2023-09-07T04:14:18;100981.31;;;12.77;100.00
46347;BME280;32057;47.830;19.046;2023-09-07T04:16:43;100984.59;;;12.67;100.00
46347;BME280;32057;47.830;19.046;2023-09-07T04:19:08;100982.75;;;12.63;100.00
46347;BME280;32057;47.830;19.046;2023-09-07T04:21:35;100983.66;;;12.65;100.00
46347;BME280;32057;47.830;19.046;2023-09-07T04:24:01;100981.09;;;12.66;100.00
46347;BME280;32057;47.830;19.046;2023-09-07T04:26:26;100989.06;;;12.74;100.00
46347;BME280;32057;47.830;19.046;2023-09-07T04:28:52;100980.41;;;12.75;100.00
46347;BME280;32057;47.830;19.046;2023-09-07T04:31:17;100985.50;;;12.69;100.00
46347;BME280;32057;47.830;19.046;2023-09-07T04:33:42;100983.72;;;12.68;100.00
46347;BME280;32057;47.830;19.046;2023-09-07T04:36:13;100991.63;;;12.71;100.00
46347;BME280;32057;47.830;19.046;2023-09-07T04:38:39;100987.09;;;12.64;100.00
46347;BME280;32057;47.830;19.046;2023-09-07T04:41:06;100985.53;;;12.70;100.00
46347;BME280;32057;47.830;19.046;2023-09-07T04:43:32;100987.28;;;12.71;100.00
46347;BME280;32057;47.830;19.046;2023-09-07T04:45:57;100979.72;;;12.84;100.00
46347;BME280;32057;47.830;19.046;2023-09-07T04:48:22;100969.47;;;12.93;100.00
46347;BME280;32057;47.830;19.046;2023-09-07T04:50:48;100972.22;;;12.99;100.00
46347;BME280;32057;47.830;19.046;2023-09-07T04:53:13;100968.91;;;13.08;100.00
46347;BME280;32057;47.830;19.046;2023-09-07T04:55:38;100970.00;;;13.19;100.00
46347;BME280;32057;47.830;19.046;2023-09-07T04:58:04;100972.69;;;13.22;100.00
46347;BME280;32057;47.830;19.046;2023-09-07T05:00:29;100980.69;;;13.30;100.00
46347;BME280;32057;47.830;19.046;2023-09-07T05:02:55;100981.81;;;13.43;100.00
46347;BME280;32057;47.830;19.046;2023-09-07T05:05:21;100982.22;;;13.64;100.00
46347;BME280;32057;47.830;19.046;2023-09-07T05:07:46;100981.13;;;14.02;100.00
46347;BME280;32057;47.830;19.046;2023-09-07T05:10:11;100987.34;;;14.63;100.00
46347;BME280;32057;47.830;19.046;2023-09-07T05:12:37;100983.34;;;14.91;100.00
46347;BME280;32057;47.830;19.046;2023-09-07T05:15:05;100991.63;;;15.22;100.00
46347;BME280;32057;47.830;19.046;2023-09-07T05:17:32;100990.66;;;15.14;100.00
46347;BME280;32057;47.830;19.046;2023-09-07T05:19:57;100992.44;;;15.18;100.00
46347;BME280;32057;47.830;19.046;2023-09-07T05:22:22;100987.53;;;15.46;100.00
46347;BME280;32057;47.830;19.046;2023-09-07T05:24:48;100985.84;;;15.56;100.00
46347;BME280;32057;47.830;19.046;2023-09-07T05:27:13;100993.66;;;15.49;100.00
46347;BME280;32057;47.830;19.046;2023-09-07T05:29:39;100999.81;;;15.50;100.00
46347;BME280;32057;47.830;19.046;2023-09-07T05:32:04;100984.06;;;15.50;100.00
46347;BME280;32057;47.830;19.046;2023-09-07T05:34:31;100982.69;;;15.86;100.00
46347;BME280;32057;47.830;19.046;2023-09-07T05:36:56;100990.22;;;16.55;100.00
46347;BME280;32057;47.830;19.046;2023-09-07T05:39:21;100975.69;;;17.29;100.00
46347;BME280;32057;47.830;19.046;2023-09-07T05:41:49;100976.72;;;17.97;100.00
46347;BME280;32057;47.830;19.046;2023-09-07T05:44:14;100983.75;;;18.41;100.00
46347;BME280;32057;47.830;19.046;2023-09-07T05:46:40;100982.00;;;18.33;100.00
46347;BME280;32057;47.830;19.046;2023-09-07T05:49:05;100987.25;;;17.97;100.00
46347;BME280;32057;47.830;19.046;2023-09-07T05:51:31;100989.84;;;17.72;100.00
46347;BME280;32057;47.830;19.046;2023-09-07T05:53:56;100982.81;;;17.61;100.00
46347;BME280;32057;47.830;19.046;2023-09-07T05:56:22;100985.44;;;17.56;100.00
46347;BME280;32057;47.830;19.046;2023-09-07T05:58:47;100983.69;;;17.52;100.00
46347;BME280;32057;47.830;19.046;2023-09-07T06:01:13;100988.94;;;17.52;100.00
46347;BME280;32057;47.830;19.046;2023-09-07T06:03:38;100991.59;;;17.54;100.00
46347;BME280;32057;47.830;19.046;2023-09-07T06:06:04;100995.06;;;17.59;100.00
46347;BME280;32057;47.830;19.046;2023-09-07T06:08:30;100999.47;;;17.64;100.00
46347;BME280;32057;47.830;19.046;2023-09-07T06:10:55;100996.88;;;17.72;100.00
46347;BME280;32057;47.830;19.046;2023-09-07T06:13:20;101002.19;;;17.84;100.00
46347;BME280;32057;47.830;19.046;2023-09-07T06:15:46;101007.47;;;17.98;100.00
46347;BME280;32057;47.830;19.046;2023-09-07T06:18:11;101000.47;;;18.09;100.00
46347;BME280;32057;47.830;19.046;2023-09-07T06:20:37;101000.44;;;18.22;100.00
46347;BME280;32057;47.830;19.046;2023-09-07T06:23:03;101006.59;;;18.39;100.00
46347;BME280;32057;47.830;19.046;2023-09-07T06:25:28;101007.41;;;18.55;100.00
46347;BME280;32057;47.830;19.046;2023-09-07T06:27:53;101011.78;;;18.67;100.00
46347;BME280;32057;47.830;19.046;2023-09-07T06:30:19;101012.69;;;18.67;100.00
46347;BME280;32057;47.830;19.046;2023-09-07T06:32:44;101011.81;;;18.79;100.00
46347;BME280;32057;47.830;19.046;2023-09-07T06:35:10;101013.50;;;19.00;100.00
46347;BME280;32057;47.830;19.046;2023-09-07T06:37:36;101015.19;;;19.21;100.00
46347;BME280;32057;47.830;19.046;2023-09-07T06:40:06;101012.50;;;19.34;100.00
46347;BME280;32057;47.830;19.046;2023-09-07T06:42:31;101012.34;;;19.58;100.00
46347;BME280;32057;47.830;19.046;2023-09-07T06:44:57;101010.53;;;19.77;100.00
46347;BME280;32057;47.830;19.046;2023-09-07T06:47:22;101010.41;;;19.93;100.00
46347;BME280;32057;47.830;19.046;2023-09-07T06:49:48;101012.94;;;20.09;100.00
46347;BME280;32057;47.830;19.046;2023-09-07T06:52:14;101013.69;;;20.22;100.00
46347;BME280;32057;47.830;19.046;2023-09-07T06:54:40;101006.50;;;20.37;100.00
46347;BME280;32057;47.830;19.046;2023-09-07T06:57:09;101009.03;;;20.50;100.00
46347;BME280;32057;47.830;19.046;2023-09-07T06:59:34;101016.78;;;20.71;100.00
46347;BME280;32057;47.830;19.046;2023-09-07T07:02:00;101017.50;;;20.86;100.00
46347;BME280;32057;47.830;19.046;2023-09-07T07:04:25;101012.97;;;20.96;100.00
46347;BME280;32057;47.830;19.046;2023-09-07T07:06:51;101014.63;;;21.06;100.00
46347;BME280;32057;47.830;19.046;2023-09-07T07:09:16;101022.47;;;21.14;100.00
46347;BME280;32057;47.830;19.046;2023-09-07T07:11:42;101017.94;;;21.25;100.00
46347;BME280;32057;47.830;19.046;2023-09-07T07:14:08;101016.06;;;21.34;100.00
46347;BME280;32057;47.830;19.046;2023-09-07T07:16:34;101015.91;;;21.46;100.00
46347;BME280;32057;47.830;19.046;2023-09-07T07:18:59;101015.69;;;21.63;100.00
46347;BME280;32057;47.830;19.046;2023-09-07T07:21:25;101016.38;;;21.76;100.00
46347;BME280;32057;47.830;19.046;2023-09-07T07:23:50;101019.84;;;21.81;100.00
46347;BME280;32057;47.830;19.046;2023-09-07T07:26:16;101017.09;;;21.87;100.00
46347;BME280;32057;47.830;19.046;2023-09-07T07:28:42;101018.69;;;21.99;100.00
46347;BME280;32057;47.830;19.046;2023-09-07T07:31:11;101018.53;;;22.06;98.37
46347;BME280;32057;47.830;19.046;2023-09-07T07:33:37;101015.00;;;22.09;96.62
46347;BME280;32057;47.830;19.046;2023-09-07T07:36:04;101018.38;;;22.19;97.15
46347;BME280;32057;47.830;19.046;2023-09-07T07:38:29;101017.34;;;22.29;99.09
46347;BME280;32057;47.830;19.046;2023-09-07T07:40:55;101015.34;;;22.40;99.15
46347;BME280;32057;47.830;19.046;2023-09-07T07:43:20;101023.06;;;22.54;98.37
46347;BME280;32057;47.830;19.046;2023-09-07T07:45:46;101027.28;;;22.66;98.32
46347;BME280;32057;47.830;19.046;2023-09-07T07:48:11;101018.34;;;22.70;90.35
46347;BME280;32057;47.830;19.046;2023-09-07T07:50:38;101027.03;;;22.78;89.68
46347;BME280;32057;47.830;19.046;2023-09-07T07:53:04;101019.88;;;22.83;88.86
46347;BME280;32057;47.830;19.046;2023-09-07T07:55:34;101020.88;;;22.76;87.53
46347;BME280;32057;47.830;19.046;2023-09-07T07:58:06;101012.41;;;22.59;87.01
46347;BME280;32057;47.830;19.046;2023-09-07T08:00:35;101019.13;;;22.77;87.47
46347;BME280;32057;47.830;19.046;2023-09-07T08:03:01;101016.41;;;22.78;89.30
46347;BME280;32057;47.830;19.046;2023-09-07T08:05:34;101014.41;;;22.91;89.52
46347;BME280;32057;47.830;19.046;2023-09-07T08:08:00;101014.16;;;22.58;91.61
46347;BME280;32057;47.830;19.046;2023-09-07T08:10:25;101021.38;;;22.50;93.18
46347;BME280;32057;47.830;19.046;2023-09-07T08:12:53;101020.41;;;22.56;91.84
46347;BME280;32057;47.830;19.046;2023-09-07T08:15:19;101019.19;;;22.74;91.34
46347;BME280;32057;47.830;19.046;2023-09-07T08:17:47;101016.50;;;22.75;89.20
46347;BME280;32057;47.830;19.046;2023-09-07T08:20:13;101015.19;;;22.50;91.91
46347;BME280;32057;47.830;19.046;2023-09-07T08:22:39;101016.53;;;22.72;90.02
46347;BME280;32057;47.830;19.046;2023-09-07T08:25:07;101005.56;;;22.45;89.62
46347;BME280;32057;47.830;19.046;2023-09-07T08:27:33;101008.66;;;22.69;88.06
46347;BME280;32057;47.830;19.046;2023-09-07T08:29:58;101005.25;;;23.09;88.13
46347;BME280;32057;47.830;19.046;2023-09-07T08:32:24;100992.22;;;23.39;86.76
46347;BME280;32057;47.830;19.046;2023-09-07T08:34:50;100998.97;;;23.52;84.65
46347;BME280;32057;47.830;19.046;2023-09-07T08:37:16;100997.81;;;23.65;84.12
46347;BME280;32057;47.830;19.046;2023-09-07T08:39:41;100997.50;;;23.81;83.92
46347;BME280;32057;47.830;19.046;2023-09-07T08:42:07;100992.44;;;24.06;87.56
46347;BME280;32057;47.830;19.046;2023-09-07T08:44:34;100989.78;;;23.69;83.38
46347;BME280;32057;47.830;19.046;2023-09-07T08:47:02;100991.28;;;23.41;83.44
46347;BME280;32057;47.830;19.046;2023-09-07T08:49:29;100992.94;;;23.45;83.56
46347;BME280;32057;47.830;19.046;2023-09-07T08:51:59;100985.13;;;23.78;85.35
46347;BME280;32057;47.830;19.046;2023-09-07T08:54:25;100988.25;;;23.96;82.11
46347;BME280;32057;47.830;19.046;2023-09-07T08:56:51;100987.53;;;23.89;81.59
46347;BME280;32057;47.830;19.046;2023-09-07T08:59:16;100988.09;;;24.02;82.49
46347;BME280;32057;47.830;19.046;2023-09-07T09:01:42;100979.56;;;24.25;80.42
46347;BME280;32057;47.830;19.046;2023-09-07T09:04:08;100977.25;;;24.11;79.59
46347;BME280;32057;47.830;19.046;2023-09-07T09:06:33;100982.06;;;23.95;80.34
46347;BME280;32057;47.830;19.046;2023-09-07T09:08:59;100975.31;;;24.16;79.11
46347;BME280;32057;47.830;19.046;2023-09-07T09:11:26;100967.41;;;24.15;80.77
46347;BME280;32057;47.830;19.046;2023-09-07T09:13:53;100978.03;;;24.15;77.60
46347;BME280;32057;47.830;19.046;2023-09-07T09:16:19;100968.97;;;24.22;78.13
46347;BME280;32057;47.830;19.046;2023-09-07T09:18:49;100970.31;;;24.38;78.10
46347;BME280;32057;47.830;19.046;2023-09-07T09:21:20;100969.03;;;24.55;76.74
46347;BME280;32057;47.830;19.046;2023-09-07T09:23:48;100971.19;;;24.73;78.47
46347;BME280;32057;47.830;19.046;2023-09-07T09:26:15;100961.75;;;24.93;76.53
46347;BME280;32057;47.830;19.046;2023-09-07T09:28:40;100960.72;;;24.98;76.96
46347;BME280;32057;47.830;19.046;2023-09-07T09:31:06;100957.03;;;25.02;75.87
46347;BME280;32057;47.830;19.046;2023-09-07T09:33:37;100954.78;;;24.89;73.50
46347;BME280;32057;47.830;19.046;2023-09-07T09:36:03;100954.88;;;25.15;73.97
46347;BME280;32057;47.830;19.046;2023-09-07T09:38:29;100960.88;;;25.23;73.90
46347;BME280;32057;47.830;19.046;2023-09-07T09:40:57;100961.38;;;25.64;73.38
46347;BME280;32057;47.830;19.046;2023-09-07T09:43:24;100958.50;;;25.99;72.61
46347;BME280;32057;47.830;19.046;2023-09-07T09:45:52;100959.00;;;26.10;70.83
46347;BME280;32057;47.830;19.046;2023-09-07T09:48:19;100955.84;;;26.24;67.48
46347;BME280;32057;47.830;19.046;2023-09-07T09:50:46;100955.25;;;26.41;68.81
46347;BME280;32057;47.830;19.046;2023-09-07T09:53:15;100951.47;;;25.96;66.06
46347;BME280;32057;47.830;19.046;2023-09-07T09:55:47;100950.72;;;25.64;66.76
46347;BME280;32057;47.830;19.046;2023-09-07T09:58:13;100947.88;;;25.97;67.04
46347;BME280;32057;47.830;19.046;2023-09-07T10:00:43;100948.75;;;25.70;64.07
46347;BME280;32057;47.830;19.046;2023-09-07T10:03:33;100946.34;;;25.62;65.62
46347;BME280;32057;47.830;19.046;2023-09-07T10:06:12;100954.16;;;25.96;65.74
46347;BME280;32057;47.830;19.046;2023-09-07T10:08:52;100949.75;;;25.94;63.12
46347;BME280;32057;47.830;19.046;2023-09-07T10:11:29;100945.38;;;26.18;65.56
46347;BME280;32057;47.830;19.046;2023-09-07T10:14:01;100943.59;;;25.92;63.34
46347;BME280;32057;47.830;19.046;2023-09-07T10:19:19;100935.78;;;25.59;65.45
46347;BME280;32057;47.830;19.046;2023-09-07T10:21:45;100937.94;;;26.02;65.57
46347;BME280;32057;47.830;19.046;2023-09-07T10:24:10;100945.56;;;26.38;65.73
46347;BME280;32057;47.830;19.046;2023-09-07T10:26:36;100936.81;;;26.60;62.61
46347;BME280;32057;47.830;19.046;2023-09-07T10:29:02;100935.47;;;26.72;60.07
46347;BME280;32057;47.830;19.046;2023-09-07T10:31:29;100932.53;;;26.79;56.45
46347;BME280;32057;47.830;19.046;2023-09-07T10:34:08;100929.38;;;26.43;54.01
46347;BME280;32057;47.830;19.046;2023-09-07T10:36:37;100927.66;;;26.17;53.12
46347;BME280;32057;47.830;19.046;2023-09-07T10:39:03;100925.25;;;26.34;52.68
46347;BME280;32057;47.830;19.046;2023-09-07T10:41:43;100915.31;;;26.38;51.31
46347;BME280;32057;47.830;19.046;2023-09-07T10:44:09;100916.09;;;26.41;51.66
46347;BME280;32057;47.830;19.046;2023-09-07T10:46:37;100910.75;;;26.41;51.27
46347;BME280;32057;47.830;19.046;2023-09-07T10:49:02;100910.00;;;26.38;49.77
46347;BME280;32057;47.830;19.046;2023-09-07T10:51:28;100904.66;;;26.63;51.02
46347;BME280;32057;47.830;19.046;2023-09-07T10:53:55;100899.72;;;26.76;46.45
46347;BME280;32057;47.830;19.046;2023-09-07T10:56:24;100898.38;;;26.88;48.54
46347;BME280;32057;47.830;19.046;2023-09-07T10:58:53;100894.94;;;27.08;48.79
46347;BME280;32057;47.830;19.046;2023-09-07T11:01:20;100892.22;;;27.09;46.10
46347;BME280;32057;47.830;19.046;2023-09-07T11:03:45;100890.91;;;27.19;47.53
46347;BME280;32057;47.830;19.046;2023-09-07T11:06:18;100895.22;;;27.24;48.30
46347;BME280;32057;47.830;19.046;2023-09-07T11:08:48;100889.13;;;27.20;45.16
46347;BME280;32057;47.830;19.046;2023-09-07T11:11:14;100887.13;;;27.27;45.65
46347;BME280;32057;47.830;19.046;2023-09-07T11:13:39;100885.91;;;27.34;46.96
46347;BME280;32057;47.830;19.046;2023-09-07T11:16:08;100891.19;;;27.35;45.48
46347;BME280;32057;47.830;19.046;2023-09-07T11:18:34;100883.81;;;27.42;43.18
46347;BME280;32057;47.830;19.046;2023-09-07T11:21:02;100881.25;;;27.39;43.06
46347;BME280;32057;47.830;19.046;2023-09-07T11:23:33;100887.03;;;27.50;45.32
46347;BME280;32057;47.830;19.046;2023-09-07T11:26:13;100882.56;;;27.51;43.40
46347;BME280;32057;47.830;19.046;2023-09-07T11:28:40;100875.16;;;27.57;43.33
46347;BME280;32057;47.830;19.046;2023-09-07T11:31:07;100875.94;;;27.59;44.82
46347;BME280;32057;47.830;19.046;2023-09-07T11:33:33;100878.31;;;27.67;45.39
46347;BME280;32057;47.830;19.046;2023-09-07T11:35:59;100875.91;;;27.61;41.36
46347;BME280;32057;47.830;19.046;2023-09-07T11:38:36;100876.22;;;27.53;42.32
46347;BME280;32057;47.830;19.046;2023-09-07T11:41:01;100871.44;;;27.39;41.88
46347;BME280;32057;47.830;19.046;2023-09-07T11:43:27;100868.19;;;27.53;42.73
46347;BME280;32057;47.830;19.046;2023-09-07T11:45:52;100861.13;;;27.52;42.09
46347;BME280;32057;47.830;19.046;2023-09-07T11:48:18;100863.59;;;27.57;41.90
46347;BME280;32057;47.830;19.046;2023-09-07T11:50:43;100868.16;;;27.75;42.82
46347;BME280;32057;47.830;19.046;2023-09-07T11:53:08;100861.75;;;27.79;40.14
46347;BME280;32057;47.830;19.046;2023-09-07T11:55:34;100865.31;;;27.80;39.99
46347;BME280;32057;47.830;19.046;2023-09-07T11:58:03;100860.53;;;27.88;43.99
46347;BME280;32057;47.830;19.046;2023-09-07T12:00:30;100862.94;;;27.94;43.42
46347;BME280;32057;47.830;19.046;2023-09-07T12:02:56;100855.66;;;27.98;42.77
46347;BME280;32057;47.830;19.046;2023-09-07T12:05:22;100854.66;;;27.78;41.62
46347;BME280;32057;47.830;19.046;2023-09-07T12:07:47;100858.09;;;27.82;43.22
46347;BME280;32057;47.830;19.046;2023-09-07T12:10:13;100855.50;;;28.01;40.86
46347;BME280;32057;47.830;19.046;2023-09-07T12:12:42;100851.91;;;28.02;39.75
46347;BME280;32057;47.830;19.046;2023-09-07T12:15:11;100852.75;;;28.03;40.61
46347;BME280;32057;47.830;19.046;2023-09-07T12:17:37;100849.94;;;28.06;39.31
46347;BME280;32057;47.830;19.046;2023-09-07T12:20:03;100852.59;;;28.06;38.49
46347;BME280;32057;47.830;19.046;2023-09-07T12:22:30;100843.72;;;28.05;37.90
46347;BME280;32057;47.830;19.046;2023-09-07T12:24:57;100845.06;;;27.95;38.27
46347;BME280;32057;47.830;19.046;2023-09-07T12:27:23;100845.00;;;27.96;39.04
46347;BME280;32057;47.830;19.046;2023-09-07T12:29:48;100841.19;;;28.02;39.29
46347;BME280;32057;47.830;19.046;2023-09-07T12:32:14;100846.13;;;28.11;39.91